EGJB

Guernsey Airport

Saint Peter Port, Guernsey

EGJB 201720Z 17019KT 9999 SCT032 BKN048 15/10 Q1008

Observed Flight Rules
Oct-20 @ 17:20 UTC (44 minutes ago)
 
Visual Flight Rules
Wind Visibility Clouds
170° at 19 knots 10,000+ meters
  • Scattered at 3,200' AGL
  • Broken at 4,800' AGL
Temperatures Readings
Current 15°C / 59°F
Dewpoint 10°C / 50°F
Humidity 72%
Altimeter 29.76" Hg
Pressure 1008 hPa
Elevation 102
Observed Flight Rules
Oct-20 @ 17:20 UTC
(44 minutes ago)
 
VFR
Wind Visibility
170° at 19 knots 10,000+ meters
Clouds
  • Scattered at 3,200' AGL
  • Broken at 4,800' AGL
Temperature Dewpoint
15°C / 59°F 10°C / 50°F
Humidity Altimeter Pressure
72% 29.76" Hg 1008 hPa